Time;durP1;ratioP1;P1;durP2;ratioP2;P2;SDS_P1;SDS_P2;PMS_P1;PMS_P2;Temp;Humidity;BMP_temperature;BMP_pressure;BME280_temperature;BME280_humidity;BME280_pressure;Samples;Min_cycle;Max_cycle;Signal;HPM_P1;HPM_P2
2021/01/01 00:01:58;;;;;;;39.30;27.77;;;3.60;98.30;;;;;;5115500;23;20236;-85
2021/01/01 00:04:01;;;;;;;41.35;22.95;;;3.60;98.30;;;;;;5124189;23;20225;-85
2021/01/01 00:06:03;;;;;;;35.42;25.50;;;3.60;98.30;;;;;;5124046;23;20609;-85
2021/01/01 00:08:10;;;;;;;40.40;25.60;;;3.60;98.30;;;;;;5123087;23;20313;-85
2021/01/01 00:10:13;;;;;;;36.10;26.63;;;3.60;98.30;;;;;;5123261;23;20222;-85
2021/01/01 00:12:15;;;;;;;37.53;26.30;;;3.60;98.30;;;;;;5114260;23;20277;-84
2021/01/01 00:14:17;;;;;;;40.58;26.92;;;3.60;98.30;;;;;;5123113;23;20226;-85
2021/01/01 00:16:20;;;;;;;39.58;26.83;;;3.70;98.30;;;;;;5126131;23;20202;-84
2021/01/01 00:18:22;;;;;;;42.88;27.48;;;3.60;98.30;;;;;;5116814;23;20663;-85
2021/01/01 00:20:24;;;;;;;37.63;26.20;;;3.70;98.30;;;;;;5135171;23;20202;-85
2021/01/01 00:22:26;;;;;;;36.58;24.67;;;3.60;98.30;;;;;;5115760;23;20677;-85
2021/01/01 00:24:28;;;;;;;36.92;24.48;;;3.60;98.30;;;;;;5124254;23;20242;-85
2021/01/01 00:26:31;;;;;;;35.83;23.48;;;3.60;98.30;;;;;;5123748;23;20206;-85
2021/01/01 00:28:33;;;;;;;33.30;22.85;;;3.60;98.30;;;;;;5123581;23;20257;-86
2021/01/01 00:30:35;;;;;;;32.78;21.70;;;3.60;98.30;;;;;;5123715;23;20222;-86
2021/01/01 00:32:37;;;;;;;37.38;23.92;;;3.50;98.30;;;;;;5124193;23;20271;-85
2021/01/01 00:34:39;;;;;;;32.92;23.25;;;3.60;98.30;;;;;;5124265;23;20289;-86
2021/01/01 00:36:41;;;;;;;35.35;22.45;;;3.60;98.30;;;;;;5124373;23;20688;-86
2021/01/01 00:38:46;;;;;;;32.65;21.38;;;3.60;98.30;;;;;;5123749;23;21221;-85
2021/01/01 00:40:49;;;;;;;31.13;20.00;;;3.50;98.30;;;;;;5116101;23;20757;-85
2021/01/01 00:42:51;;;;;;;34.22;21.45;;;3.50;98.30;;;;;;5124765;23;20205;-84
2021/01/01 00:44:53;;;;;;;34.83;21.77;;;3.40;98.30;;;;;;5116547;23;20203;-82
2021/01/01 00:46:55;;;;;;;32.42;22.63;;;3.50;98.30;;;;;;5124643;23;20290;-86
2021/01/01 00:51:26;;;;;;;34.63;21.52;;;3.50;98.30;;;;;;5123156;23;20222;-85
2021/01/01 00:53:29;;;;;;;35.80;22.95;;;3.50;98.30;;;;;;5122751;23;20229;-84
2021/01/01 00:55:31;;;;;;;35.38;20.05;;;3.50;98.30;;;;;;5122662;23;20214;-85
2021/01/01 00:57:34;;;;;;;35.72;24.60;;;3.50;98.30;;;;;;5123577;23;20226;-85
2021/01/01 00:59:36;;;;;;;33.80;22.52;;;3.50;98.30;;;;;;5122433;23;20202;-85
2021/01/01 01:01:38;;;;;;;35.33;23.67;;;3.50;98.30;;;;;;5121415;23;20220;-83
2021/01/01 01:03:42;;;;;;;32.65;22.60;;;3.40;98.30;;;;;;5122789;23;20706;-85
2021/01/01 01:05:44;;;;;;;30.33;21.85;;;3.40;98.30;;;;;;5123912;23;20581;-86
2021/01/01 01:07:46;;;;;;;34.38;22.80;;;3.50;98.30;;;;;;5123211;23;20257;-85
2021/01/01 01:09:49;;;;;;;36.55;21.25;;;3.50;98.30;;;;;;5115447;23;20241;-85
2021/01/01 01:11:51;;;;;;;34.25;22.83;;;3.40;98.30;;;;;;5123115;23;20228;-85
2021/01/01 01:13:55;;;;;;;37.15;20.63;;;3.50;98.30;;;;;;5115164;23;20678;-85
2021/01/01 01:15:57;;;;;;;33.83;20.40;;;3.50;98.30;;;;;;5123439;23;20538;-85
2021/01/01 01:17:59;;;;;;;30.33;20.38;;;3.50;98.30;;;;;;5123060;23;20206;-85
2021/01/01 01:20:01;;;;;;;30.20;20.20;;;3.40;98.30;;;;;;5123338;23;20202;-86
2021/01/01 01:22:03;;;;;;;33.22;20.63;;;3.50;98.30;;;;;;5121289;23;20310;-85
2021/01/01 01:24:07;;;;;;;35.10;21.65;;;3.40;98.30;;;;;;5121968;23;20210;-85
2021/01/01 01:26:09;;;;;;;32.55;20.60;;;3.40;98.30;;;;;;5119552;23;20281;-85
2021/01/01 01:28:12;;;;;;;29.55;20.58;;;3.40;98.30;;;;;;5121342;23;20244;-85
2021/01/01 01:30:16;;;;;;;27.45;20.08;;;3.50;98.30;;;;;;5121240;23;20297;-86
2021/01/01 01:32:18;;;;;;;34.83;20.70;;;3.50;98.30;;;;;;5121385;23;20285;-85
2021/01/01 01:34:20;;;;;;;29.50;20.35;;;3.50;98.30;;;;;;5114634;23;20268;-86
2021/01/01 01:36:22;;;;;;;28.10;19.33;;;3.50;98.30;;;;;;5114051;23;20574;-85
2021/01/01 01:38:24;;;;;;;36.05;18.95;;;3.50;98.30;;;;;;5122023;23;20202;-85
2021/01/01 01:40:26;;;;;;;30.52;20.40;;;3.50;98.30;;;;;;5114561;23;20709;-85
2021/01/01 01:42:28;;;;;;;28.98;18.27;;;3.50;98.30;;;;;;5123437;23;20205;-85
2021/01/01 01:44:30;;;;;;;32.42;17.65;;;3.50;98.30;;;;;;5123773;23;20206;-84
2021/01/01 01:46:40;;;;;;;29.83;17.85;;;3.50;98.30;;;;;;5123999;23;20202;-84
2021/01/01 01:48:44;;;;;;;26.23;17.30;;;3.50;98.30;;;;;;5123910;23;20203;-84
2021/01/01 01:50:47;;;;;;;28.20;19.10;;;3.40;98.30;;;;;;5125264;23;20254;-84
2021/01/01 01:52:49;;;;;;;32.08;19.77;;;3.40;98.30;;;;;;5125729;23;20206;-84
2021/01/01 01:54:54;;;;;;;26.02;18.67;;;3.40;98.30;;;;;;5125954;23;20282;-85
2021/01/01 01:56:58;;;;;;;27.92;17.58;;;3.40;98.30;;;;;;5125323;23;20206;-85
2021/01/01 01:59:01;;;;;;;25.63;17.52;;;3.40;98.30;;;;;;5121224;23;20211;-84
2021/01/01 02:01:04;;;;;;;29.38;19.42;;;3.50;98.30;;;;;;5130048;23;20721;-84
2021/01/01 02:03:07;;;;;;;30.98;20.20;;;3.40;98.30;;;;;;5128247;23;20209;-84
2021/01/01 02:05:14;;;;;;;29.55;18.45;;;3.40;98.30;;;;;;5128265;23;20202;-84
2021/01/01 02:07:16;;;;;;;29.88;19.05;;;3.40;98.30;;;;;;5127737;23;20646;-84
2021/01/01 02:09:18;;;;;;;26.83;18.20;;;3.50;98.30;;;;;;5128733;23;20677;-84
2021/01/01 02:11:20;;;;;;;29.05;19.67;;;3.50;98.30;;;;;;5121795;23;20202;-83
2021/01/01 02:13:23;;;;;;;30.00;20.08;;;3.50;98.30;;;;;;5128441;23;20276;-84
2021/01/01 02:15:26;;;;;;;31.75;21.20;;;3.50;98.30;;;;;;5130513;23;20206;-84
2021/01/01 02:17:29;;;;;;;29.33;19.95;;;3.50;98.30;;;;;;5128732;23;20285;-84
2021/01/01 02:19:32;;;;;;;31.08;20.27;;;3.50;98.30;;;;;;5128445;23;20206;-85
2021/01/01 02:21:34;;;;;;;27.73;18.13;;;3.50;98.30;;;;;;5121277;23;20709;-86
2021/01/01 02:23:37;;;;;;;29.17;16.55;;;3.50;98.30;;;;;;5129414;23;20207;-85
2021/01/01 02:25:40;;;;;;;27.00;18.02;;;3.50;98.30;;;;;;5130942;23;20202;-84
2021/01/01 02:27:42;;;;;;;29.00;19.13;;;3.50;98.30;;;;;;5133336;23;20202;-85
2021/01/01 02:29:49;;;;;;;31.52;20.30;;;3.60;98.30;;;;;;5118390;23;20269;-84
2021/01/01 02:31:51;;;;;;;26.85;18.25;;;3.50;98.30;;;;;;5127018;23;20286;-84
2021/01/01 02:33:53;;;;;;;28.45;18.00;;;3.50;98.30;;;;;;5126215;23;20221;-84
2021/01/01 02:35:55;;;;;;;25.85;17.05;;;3.50;98.30;;;;;;5118110;23;20207;-85
2021/01/01 02:37:58;;;;;;;32.00;20.13;;;3.50;98.30;;;;;;5125887;23;20226;-84
2021/01/01 02:40:01;;;;;;;25.98;18.05;;;3.50;98.30;;;;;;5127321;23;20237;-85
2021/01/01 02:42:04;;;;;;;32.25;20.08;;;3.50;98.30;;;;;;5126272;23;20233;-85
2021/01/01 02:44:06;;;;;;;29.95;19.23;;;3.50;98.30;;;;;;5126458;23;20229;-84
2021/01/01 02:46:09;;;;;;;31.77;18.73;;;3.50;98.30;;;;;;5120252;23;20213;-84
2021/01/01 02:48:14;;;;;;;33.58;22.38;;;3.50;98.30;;;;;;5128319;23;20230;-84
2021/01/01 02:50:17;;;;;;;33.25;18.05;;;3.60;98.30;;;;;;5128807;23;20252;-84
2021/01/01 02:52:19;;;;;;;30.27;21.38;;;3.60;98.30;;;;;;5128437;23;20209;-85
2021/01/01 02:54:21;;;;;;;32.38;20.95;;;3.60;98.30;;;;;;5120512;23;20285;-85
2021/01/01 02:56:36;;;;;;;31.40;20.10;;;3.60;98.30;;;;;;5122129;23;20289;-84
2021/01/01 02:58:38;;;;;;;32.35;19.20;;;3.60;98.30;;;;;;5129855;23;20198;-85
2021/01/01 03:00:42;;;;;;;36.67;20.75;;;3.60;98.30;;;;;;5130265;23;20203;-85
2021/01/01 03:02:44;;;;;;;29.67;19.08;;;3.60;98.30;;;;;;5130367;23;20198;-84
2021/01/01 03:04:46;;;;;;;30.50;18.08;;;3.60;98.30;;;;;;5130842;23;20203;-84
2021/01/01 03:06:48;;;;;;;31.33;16.67;;;3.60;98.30;;;;;;5122499;23;20214;-84
2021/01/01 03:08:50;;;;;;;35.25;21.70;;;3.60;98.30;;;;;;5130497;23;20948;-84
2021/01/01 03:10:53;;;;;;;29.67;20.85;;;3.60;98.30;;;;;;5131182;23;20194;-85
2021/01/01 03:12:56;;;;;;;33.20;20.55;;;3.60;98.30;;;;;;5129206;23;20210;-85
2021/01/01 03:14:58;;;;;;;35.75;22.95;;;3.50;98.30;;;;;;5128035;23;20271;-84
2021/01/01 03:17:00;;;;;;;32.55;21.35;;;3.50;98.30;;;;;;5128688;23;20238;-85
2021/01/01 03:19:02;;;;;;;31.73;21.10;;;3.60;98.30;;;;;;5126329;23;20210;-85
2021/01/01 03:21:05;;;;;;;30.75;20.58;;;3.60;98.30;;;;;;5125549;23;20203;-85
2021/01/01 03:23:10;;;;;;;33.00;21.92;;;3.50;98.30;;;;;;5127328;23;20229;-85
2021/01/01 03:25:13;;;;;;;32.35;22.45;;;3.50;98.30;;;;;;5128055;23;20230;-85
2021/01/01 03:27:15;;;;;;;33.13;20.25;;;3.50;98.30;;;;;;5128532;23;20199;-85
2021/01/01 03:29:18;;;;;;;39.70;21.10;;;3.60;98.30;;;;;;5128738;23;20544;-85
2021/01/01 03:31:20;;;;;;;32.97;21.42;;;3.60;98.30;;;;;;5128718;23;20198;-85
2021/01/01 03:33:22;;;;;;;32.55;20.10;;;3.60;98.30;;;;;;5127256;23;20666;-85
2021/01/01 03:35:26;;;;;;;30.30;19.85;;;3.60;98.30;;;;;;5125699;23;20217;-84
2021/01/01 03:37:28;;;;;;;34.38;21.45;;;3.70;98.30;;;;;;5126688;23;20206;-84
2021/01/01 03:39:30;;;;;;;65.18;38.15;;;3.70;98.30;;;;;;5126060;23;20210;-84
2021/01/01 03:41:32;;;;;;;36.92;22.83;;;3.70;98.30;;;;;;5126368;23;20237;-85
2021/01/01 03:43:34;;;;;;;35.05;21.20;;;3.70;98.30;;;;;;5126453;23;20229;-84
2021/01/01 03:45:37;;;;;;;35.30;20.98;;;3.70;98.30;;;;;;5126322;23;20214;-85
2021/01/01 03:47:39;;;;;;;33.60;23.75;;;3.70;98.30;;;;;;5118513;23;20682;-85
2021/01/01 03:49:41;;;;;;;31.35;20.05;;;3.60;98.30;;;;;;5119165;23;20210;-85
2021/01/01 03:51:43;;;;;;;36.70;23.13;;;3.60;98.30;;;;;;5126628;23;20199;-85
2021/01/01 03:53:46;;;;;;;36.38;21.63;;;3.60;98.30;;;;;;5127905;23;20210;-84
2021/01/01 03:55:48;;;;;;;33.45;22.05;;;3.60;98.30;;;;;;5127786;23;20654;-84
2021/01/01 03:57:50;;;;;;;35.10;21.48;;;3.60;98.30;;;;;;5127795;23;20230;-84
2021/01/01 03:59:52;;;;;;;36.72;22.30;;;3.50;98.30;;;;;;5120219;23;20782;-85
2021/01/01 04:01:55;;;;;;;34.10;19.88;;;3.50;98.30;;;;;;5116940;23;20597;-85
2021/01/01 04:03:57;;;;;;;33.58;21.63;;;3.50;98.30;;;;;;5126012;23;20534;-84
2021/01/01 04:05:59;;;;;;;34.60;23.38;;;3.50;98.30;;;;;;5119034;23;20210;-84
2021/01/01 04:08:01;;;;;;;54.63;31.98;;;3.50;98.30;;;;;;5125967;23;20202;-84
2021/01/01 04:10:05;;;;;;;35.05;22.30;;;3.50;98.30;;;;;;5125883;23;20203;-84
2021/01/01 04:12:08;;;;;;;32.30;20.30;;;3.60;98.30;;;;;;5126380;23;20279;-85
2021/01/01 04:14:10;;;;;;;35.17;23.67;;;3.50;98.30;;;;;;5117921;23;20217;-85
2021/01/01 04:16:12;;;;;;;36.78;23.60;;;3.50;98.30;;;;;;5126409;23;20654;-84
2021/01/01 04:18:16;;;;;;;37.30;21.67;;;3.50;98.30;;;;;;5126321;23;20202;-85
2021/01/01 04:20:18;;;;;;;32.85;23.70;;;3.50;98.30;;;;;;5126664;23;20199;-84
2021/01/01 04:22:21;;;;;;;36.45;20.75;;;3.50;98.30;;;;;;5127617;23;20206;-84
2021/01/01 04:24:23;;;;;;;43.25;24.95;;;3.60;98.30;;;;;;5127301;23;20209;-85
2021/01/01 04:26:25;;;;;;;38.85;24.25;;;3.50;98.30;;;;;;5127651;23;20212;-85
2021/01/01 04:28:28;;;;;;;41.65;25.25;;;3.50;98.30;;;;;;5127264;23;20218;-85
2021/01/01 04:30:30;;;;;;;42.20;23.35;;;3.50;98.30;;;;;;5128657;23;20209;-84
2021/01/01 04:32:32;;;;;;;33.90;22.27;;;3.40;98.30;;;;;;5128879;23;20203;-85
2021/01/01 04:34:35;;;;;;;40.92;23.27;;;3.50;98.30;;;;;;5128568;23;20205;-85
2021/01/01 04:36:37;;;;;;;38.70;22.40;;;3.50;98.30;;;;;;5128709;23;20217;-84
2021/01/01 04:38:39;;;;;;;43.95;25.70;;;3.50;98.30;;;;;;5126624;23;20286;-84
2021/01/01 04:40:41;;;;;;;38.30;24.20;;;3.50;98.30;;;;;;5126151;23;20733;-84
2021/01/01 04:42:43;;;;;;;45.30;24.77;;;3.50;98.30;;;;;;5125715;23;20237;-85
2021/01/01 04:44:46;;;;;;;42.40;22.83;;;3.50;98.30;;;;;;5125725;23;20229;-84
2021/01/01 04:46:49;;;;;;;41.45;24.67;;;3.50;98.30;;;;;;5126651;23;20202;-84
2021/01/01 04:48:51;;;;;;;41.42;24.92;;;3.50;98.30;;;;;;5127780;23;20203;-84
2021/01/01 04:50:55;;;;;;;38.50;23.63;;;3.50;98.30;;;;;;5127694;23;20205;-84
2021/01/01 04:52:58;;;;;;;43.67;26.20;;;3.40;98.30;;;;;;5126212;23;20237;-84
2021/01/01 04:55:00;;;;;;;37.60;22.23;;;3.40;98.30;;;;;;5127381;23;20213;-84
2021/01/01 04:57:03;;;;;;;38.17;22.42;;;3.30;98.30;;;;;;5127637;23;20217;-84
2021/01/01 04:59:05;;;;;;;38.25;24.05;;;3.30;98.30;;;;;;5126767;23;20208;-84
2021/01/01 05:01:07;;;;;;;39.22;22.45;;;3.30;98.30;;;;;;5128040;23;20198;-84
2021/01/01 05:03:09;;;;;;;38.42;24.67;;;3.30;98.30;;;;;;5126776;23;20225;-84
2021/01/01 05:05:11;;;;;;;39.42;23.23;;;3.40;98.30;;;;;;5119386;23;20234;-84
2021/01/01 05:07:18;;;;;;;41.67;27.35;;;3.30;98.30;;;;;;5119481;23;20305;-84
2021/01/01 05:09:20;;;;;;;36.05;21.48;;;3.40;98.30;;;;;;5126711;23;20224;-84
2021/01/01 05:11:22;;;;;;;37.63;20.70;;;3.30;98.30;;;;;;5126742;23;20258;-84
2021/01/01 05:13:24;;;;;;;42.92;21.42;;;3.20;98.30;;;;;;5128616;23;20217;-84
2021/01/01 05:15:36;;;;;;;44.95;25.77;;;3.10;98.30;;;;;;5118976;23;20217;-85
2021/01/01 05:17:38;;;;;;;42.72;25.67;;;3.10;98.30;;;;;;5128785;23;20202;-84
2021/01/01 05:19:41;;;;;;;50.03;23.08;;;3.10;98.30;;;;;;5122065;23;20237;-84
2021/01/01 05:21:43;;;;;;;48.00;26.13;;;3.20;98.30;;;;;;5121212;23;20210;-84
2021/01/01 05:23:50;;;;;;;45.83;25.45;;;3.20;98.30;;;;;;5130764;23;20218;-85
2021/01/01 05:26:08;;;;;;;44.35;27.73;;;3.20;98.30;;;;;;5131415;23;20203;-84
2021/01/01 05:28:13;;;;;;;46.20;27.30;;;3.10;98.30;;;;;;5130875;23;20213;-85
2021/01/01 05:30:16;;;;;;;49.97;28.83;;;3.20;98.30;;;;;;5121867;23;20214;-84
2021/01/01 05:32:22;;;;;;;45.88;26.55;;;3.30;98.30;;;;;;5130709;23;20205;-85
2021/01/01 05:34:25;;;;;;;42.15;25.27;;;3.30;98.30;;;;;;5132529;23;20646;-84
2021/01/01 05:36:30;;;;;;;44.92;26.60;;;3.30;98.30;;;;;;5131161;23;20208;-85
2021/01/01 05:38:36;;;;;;;50.83;28.33;;;3.20;98.30;;;;;;5128353;23;20202;-85
2021/01/01 05:40:39;;;;;;;44.30;24.77;;;3.20;98.30;;;;;;5129744;23;20678;-84
2021/01/01 05:42:41;;;;;;;43.22;29.17;;;3.20;98.30;;;;;;5126097;23;20813;-84
2021/01/01 05:44:43;;;;;;;41.05;24.80;;;3.20;98.30;;;;;;5117052;23;20706;-84
2021/01/01 05:46:59;;;;;;;43.65;26.13;;;3.20;98.30;;;;;;5116540;23;20314;-84
2021/01/01 05:49:04;;;;;;;54.15;25.85;;;3.20;98.30;;;;;;5124669;23;20207;-84
2021/01/01 05:51:07;;;;;;;43.65;27.63;;;3.20;98.30;;;;;;5115548;23;20210;-85
2021/01/01 05:53:13;;;;;;;46.60;28.73;;;3.20;98.30;;;;;;5125303;23;20198;-84
2021/01/01 05:55:15;;;;;;;51.15;25.75;;;3.20;98.30;;;;;;5125038;23;20285;-85
2021/01/01 05:57:23;;;;;;;45.05;26.35;;;3.20;98.30;;;;;;5124924;23;20206;-86
2021/01/01 05:59:26;;;;;;;44.28;24.63;;;3.20;98.30;;;;;;5124149;23;20537;-85
2021/01/01 06:01:32;;;;;;;37.60;21.05;;;3.20;98.30;;;;;;5125040;23;20203;-84
2021/01/01 06:03:34;;;;;;;40.63;21.25;;;3.20;98.30;;;;;;5124419;23;20203;-85
2021/01/01 06:05:38;;;;;;;36.17;21.10;;;3.20;98.30;;;;;;5125173;23;20896;-85
2021/01/01 06:07:42;;;;;;;38.67;23.08;;;3.20;98.30;;;;;;5126571;23;20725;-84
2021/01/01 06:09:44;;;;;;;38.25;23.58;;;3.30;98.30;;;;;;5119998;23;20211;-84
2021/01/01 06:11:59;;;;;;;30.85;21.17;;;3.30;98.30;;;;;;5119612;23;20260;-84
2021/01/01 06:14:04;;;;;;;35.92;21.17;;;3.30;98.30;;;;;;5125726;23;20198;-85
2021/01/01 06:16:09;;;;;;;36.22;24.45;;;3.20;98.30;;;;;;5125640;23;20574;-84
2021/01/01 06:18:24;;;;;;;38.53;21.08;;;3.20;98.30;;;;;;5125833;23;20199;-84
2021/01/01 06:20:26;;;;;;;36.75;20.98;;;3.20;98.30;;;;;;5125094;23;20206;-84
2021/01/01 06:22:30;;;;;;;39.70;22.45;;;3.20;98.30;;;;;;5130277;23;20268;-84
2021/01/01 06:24:44;;;;;;;36.00;21.55;;;3.10;98.30;;;;;;5121639;23;20261;-84
2021/01/01 06:26:47;;;;;;;39.33;21.08;;;3.10;98.30;;;;;;5131056;23;20233;-84
2021/01/01 06:28:49;;;;;;;37.58;21.33;;;3.10;98.30;;;;;;5120702;23;20221;-84
2021/01/01 06:30:55;;;;;;;43.55;22.92;;;3.10;98.30;;;;;;5130133;23;20202;-84
2021/01/01 06:32:57;;;;;;;34.30;24.50;;;3.10;98.30;;;;;;5130006;23;20710;-84
2021/01/01 06:35:12;;;;;;;40.97;22.23;;;3.10;98.30;;;;;;5127449;23;20206;-84
2021/01/01 06:37:37;;;;;;;39.97;21.92;;;3.10;98.30;;;;;;5119126;23;20203;-84
2021/01/01 06:39:43;;;;;;;38.38;21.40;;;3.10;98.30;;;;;;5129322;23;20203;-85
2021/01/01 06:41:46;;;;;;;40.70;19.63;;;3.10;98.30;;;;;;5118882;23;20233;-85
2021/01/01 06:43:50;;;;;;;36.30;21.90;;;3.00;98.30;;;;;;5128493;23;20278;-84
2021/01/01 06:45:58;;;;;;;39.65;23.20;;;3.00;98.30;;;;;;5131404;23;20202;-83
2021/01/01 06:48:00;;;;;;;37.03;22.85;;;3.10;98.30;;;;;;5117705;23;20751;-84
2021/01/01 06:50:03;;;;;;;39.88;22.77;;;3.10;98.30;;;;;;5127107;23;20590;-85
2021/01/01 06:52:15;;;;;;;45.25;21.92;;;3.00;98.30;;;;;;5127874;23;20240;-84
2021/01/01 06:54:17;;;;;;;45.42;24.55;;;3.00;98.30;;;;;;5128279;23;20206;-84
2021/01/01 06:56:24;;;;;;;42.45;26.85;;;3.00;98.30;;;;;;5130145;23;20920;-84
2021/01/01 06:58:26;;;;;;;37.08;22.02;;;3.00;98.30;;;;;;5129826;23;20203;-84
2021/01/01 07:00:56;;;;;;;40.42;25.02;;;3.00;98.30;;;;;;5128689;23;20865;-83
2021/01/01 07:02:58;;;;;;;37.83;23.35;;;3.00;98.30;;;;;;5090490;23;20210;-84
2021/01/01 07:05:04;;;;;;;41.55;23.27;;;3.10;98.30;;;;;;5124658;23;20298;-84
2021/01/01 07:07:07;;;;;;;41.35;25.23;;;3.10;98.30;;;;;;5117177;23;20210;-84
2021/01/01 07:09:13;;;;;;;41.05;23.20;;;3.10;98.30;;;;;;5117025;23;20860;-85
2021/01/01 07:11:44;;;;;;;37.70;24.02;;;3.00;98.30;;;;;;5125574;23;20198;-84
2021/01/01 07:13:47;;;;;;;37.90;23.40;;;3.00;98.30;;;;;;5125970;23;20237;-84
2021/01/01 07:15:49;;;;;;;43.10;26.05;;;3.00;98.30;;;;;;5128636;23;20681;-84
2021/01/01 07:17:56;;;;;;;41.58;23.70;;;3.00;98.30;;;;;;5128662;23;20611;-84
2021/01/01 07:19:58;;;;;;;41.85;22.13;;;3.00;98.30;;;;;;5121555;23;20207;-84
2021/01/01 07:22:00;;;;;;;39.58;24.40;;;2.90;98.30;;;;;;5130390;23;20207;-84
2021/01/01 07:24:03;;;;;;;39.72;21.90;;;2.90;98.30;;;;;;5120172;23;20203;-83
2021/01/01 07:26:06;;;;;;;34.35;20.30;;;3.00;98.30;;;;;;5121454;23;20242;-84
2021/01/01 07:28:11;;;;;;;40.00;25.10;;;3.00;98.30;;;;;;5129921;23;20269;-84
2021/01/01 07:30:15;;;;;;;39.30;23.00;;;3.00;98.30;;;;;;5129852;23;20238;-84
2021/01/01 07:32:18;;;;;;;38.78;23.05;;;3.10;98.30;;;;;;5130693;23;20274;-84
2021/01/01 07:34:22;;;;;;;41.00;24.30;;;3.00;98.30;;;;;;5131327;23;20778;-83
2021/01/01 07:36:24;;;;;;;37.78;22.88;;;3.00;98.30;;;;;;5123258;23;20206;-83
2021/01/01 07:38:28;;;;;;;40.33;22.95;;;2.90;98.30;;;;;;5130588;23;20211;-83
2021/01/01 07:40:30;;;;;;;33.90;22.35;;;2.90;98.30;;;;;;5119235;23;20265;-82
2021/01/01 07:42:46;;;;;;;36.97;22.88;;;2.90;98.30;;;;;;5127737;23;20520;-84
2021/01/01 07:44:50;;;;;;;39.70;24.20;;;2.90;98.30;;;;;;5127302;23;20256;-84
2021/01/01 07:46:52;;;;;;;37.80;22.75;;;2.90;98.30;;;;;;5127628;23;20207;-84
2021/01/01 07:48:54;;;;;;;39.53;23.02;;;2.90;98.30;;;;;;5127403;23;20205;-84
2021/01/01 07:50:59;;;;;;;38.42;23.48;;;2.90;98.30;;;;;;5127933;23;20206;-83
2021/01/01 07:53:03;;;;;;;35.22;23.58;;;2.90;98.30;;;;;;5125433;23;20228;-83
2021/01/01 07:55:06;;;;;;;41.28;24.88;;;2.90;98.30;;;;;;5124912;23;20203;-85
2021/01/01 07:57:08;;;;;;;42.85;25.60;;;2.90;98.30;;;;;;5124496;23;20203;-84
2021/01/01 07:59:11;;;;;;;43.17;28.20;;;2.90;98.30;;;;;;5124237;23;20213;-83
2021/01/01 08:01:13;;;;;;;37.20;22.35;;;2.90;98.30;;;;;;5124613;23;20202;-84
2021/01/01 08:03:15;;;;;;;40.60;25.67;;;2.90;98.30;;;;;;5124975;23;20268;-83
2021/01/01 08:05:18;;;;;;;36.17;22.02;;;3.00;98.30;;;;;;5125067;23;20207;-82
2021/01/01 08:07:23;;;;;;;40.80;23.92;;;2.90;98.30;;;;;;5124404;23;20686;-83
2021/01/01 08:09:25;;;;;;;37.67;25.52;;;2.90;98.30;;;;;;5125760;23;20669;-84
2021/01/01 08:11:28;;;;;;;38.53;25.15;;;2.90;98.30;;;;;;5125371;23;20722;-83
2021/01/01 08:13:31;;;;;;;40.60;23.80;;;2.90;98.30;;;;;;5117250;23;20211;-83
2021/01/01 08:15:33;;;;;;;43.17;26.80;;;2.90;98.30;;;;;;5124768;23;20293;-84
2021/01/01 08:17:35;;;;;;;38.03;25.60;;;2.90;98.30;;;;;;5126578;23;20226;-84
2021/01/01 08:19:37;;;;;;;39.40;26.17;;;2.90;98.30;;;;;;5124395;23;20206;-84
2021/01/01 08:21:44;;;;;;;40.17;24.98;;;3.00;98.30;;;;;;5124886;23;20209;-83
2021/01/01 08:24:08;;;;;;;38.65;26.92;;;2.90;98.30;;;;;;5116854;23;20537;-83
2021/01/01 08:26:11;;;;;;;41.03;25.35;;;2.90;98.30;;;;;;5125871;23;20245;-84
2021/01/01 08:28:18;;;;;;;40.00;22.83;;;2.80;98.30;;;;;;5125031;23;20279;-84
2021/01/01 08:30:22;;;;;;;43.92;25.90;;;2.80;98.30;;;;;;5125581;23;20209;-84
2021/01/01 08:32:25;;;;;;;43.03;25.63;;;2.90;98.30;;;;;;5127666;23;20195;-84
2021/01/01 08:34:28;;;;;;;41.95;25.10;;;3.00;98.30;;;;;;5128589;23;20202;-84
2021/01/01 08:36:31;;;;;;;43.35;25.33;;;3.00;98.30;;;;;;5130565;23;20266;-84
2021/01/01 08:38:34;;;;;;;46.05;28.08;;;3.10;98.30;;;;;;5130816;23;20210;-84
2021/01/01 08:40:37;;;;;;;45.72;27.10;;;3.10;98.30;;;;;;5130472;23;20682;-84
2021/01/01 08:42:40;;;;;;;46.45;27.73;;;3.10;98.30;;;;;;5129920;23;20205;-85
2021/01/01 08:44:45;;;;;;;50.22;29.08;;;3.10;98.30;;;;;;5128322;23;20585;-84
2021/01/01 08:46:57;;;;;;;41.72;25.15;;;3.20;98.30;;;;;;5129445;23;20225;-85
2021/01/01 08:49:15;;;;;;;45.28;27.75;;;3.10;98.30;;;;;;5127749;23;20198;-84
2021/01/01 08:51:31;;;;;;;48.25;28.00;;;3.10;98.30;;;;;;5127157;23;20236;-86
2021/01/01 08:53:38;;;;;;;48.83;28.90;;;3.10;98.30;;;;;;5127712;23;20199;-84
2021/01/01 08:55:41;;;;;;;50.97;27.38;;;3.10;98.30;;;;;;5129003;23;20206;-85
2021/01/01 08:57:43;;;;;;;48.95;28.10;;;3.10;98.30;;;;;;5127969;23;20203;-83
2021/01/01 08:59:58;;;;;;;44.22;26.77;;;3.20;98.30;;;;;;5130944;23;20256;-84
2021/01/01 09:02:12;;;;;;;49.25;26.33;;;3.10;98.30;;;;;;5128005;23;20216;-84
2021/01/01 09:04:15;;;;;;;49.10;26.45;;;3.10;98.30;;;;;;5128012;23;20202;-84
2021/01/01 09:06:18;;;;;;;53.45;29.33;;;3.10;98.30;;;;;;5128132;23;20213;-86
2021/01/01 09:08:22;;;;;;;50.72;26.60;;;3.10;98.30;;;;;;5126387;23;20849;-84
2021/01/01 09:10:25;;;;;;;56.80;31.25;;;3.10;98.30;;;;;;5125534;23;20282;-84
2021/01/01 09:12:28;;;;;;;57.90;28.58;;;3.10;98.30;;;;;;5125877;23;20203;-84
2021/01/01 09:14:30;;;;;;;66.88;32.45;;;3.10;98.30;;;;;;5125569;23;20256;-84
2021/01/01 09:16:32;;;;;;;56.03;32.65;;;3.10;98.30;;;;;;5125784;23;20210;-85
2021/01/01 09:18:35;;;;;;;55.50;29.58;;;3.10;98.30;;;;;;5125373;23;20203;-84
2021/01/01 09:20:42;;;;;;;63.25;33.70;;;3.20;98.30;;;;;;5126391;23;20206;-84
2021/01/01 09:22:44;;;;;;;69.68;33.97;;;3.20;98.30;;;;;;5126640;23;20229;-84
2021/01/01 09:24:47;;;;;;;70.47;36.22;;;3.20;98.30;;;;;;5127950;23;20561;-84
2021/01/01 09:26:58;;;;;;;66.78;34.92;;;3.20;98.30;;;;;;5126914;23;20705;-84
2021/01/01 09:29:04;;;;;;;66.07;32.80;;;3.10;98.30;;;;;;5125250;23;20214;-84
2021/01/01 09:31:06;;;;;;;67.10;35.55;;;3.20;98.30;;;;;;5125574;23;20650;-85
2021/01/01 09:33:08;;;;;;;60.92;29.25;;;3.20;98.30;;;;;;5126488;23;20218;-85
2021/01/01 09:35:12;;;;;;;71.07;36.58;;;3.20;98.30;;;;;;5126205;23;20655;-84
2021/01/01 09:37:14;;;;;;;60.80;31.83;;;3.20;98.30;;;;;;5125847;23;20670;-84
2021/01/01 09:39:16;;;;;;;70.55;36.80;;;3.20;98.30;;;;;;5125732;23;20262;-85
2021/01/01 09:41:19;;;;;;;63.85;36.90;;;3.30;98.30;;;;;;5126674;23;20225;-84
2021/01/01 09:43:21;;;;;;;77.47;38.42;;;3.30;98.30;;;;;;5124738;23;20207;-83
2021/01/01 09:45:24;;;;;;;57.72;28.20;;;3.30;98.30;;;;;;5126519;23;20670;-84
2021/01/01 09:47:26;;;;;;;72.20;38.40;;;3.40;98.30;;;;;;5126012;23;20214;-83
2021/01/01 09:49:28;;;;;;;80.10;38.60;;;3.30;98.30;;;;;;5124934;23;20294;-84
2021/01/01 09:51:30;;;;;;;73.45;36.05;;;3.40;98.30;;;;;;5128250;23;20538;-85
2021/01/01 09:53:32;;;;;;;74.45;38.92;;;3.40;98.30;;;;;;5128539;23;20274;-86
2021/01/01 09:55:35;;;;;;;57.55;32.08;;;3.40;98.30;;;;;;5127232;23;20261;-83
2021/01/01 09:57:38;;;;;;;58.90;34.15;;;3.50;98.30;;;;;;5126907;23;20305;-84
2021/01/01 09:59:40;;;;;;;53.30;26.00;;;3.50;98.30;;;;;;5128169;23;20207;-84
2021/01/01 10:01:43;;;;;;;52.30;28.23;;;3.50;98.30;;;;;;5131034;23;20207;-84
2021/01/01 10:03:45;;;;;;;65.60;31.70;;;3.40;98.30;;;;;;5129481;23;20226;-83
2021/01/01 10:05:51;;;;;;;57.00;26.65;;;3.50;98.30;;;;;;5131060;23;20202;-84
2021/01/01 10:07:53;;;;;;;50.17;27.17;;;3.60;98.30;;;;;;5132472;23;20230;-84
2021/01/01 10:09:55;;;;;;;77.53;36.78;;;3.60;98.30;;;;;;5131753;23;20206;-84
2021/01/01 10:11:57;;;;;;;59.30;32.13;;;3.40;98.30;;;;;;5131457;23;20225;-83
2021/01/01 10:14:00;;;;;;;64.07;29.98;;;3.50;98.30;;;;;;5129612;23;20233;-84
2021/01/01 10:16:06;;;;;;;53.13;30.45;;;3.50;98.30;;;;;;5128036;23;20209;-84
2021/01/01 10:18:09;;;;;;;55.75;29.65;;;3.50;98.30;;;;;;5127693;23;20218;-84
2021/01/01 10:20:12;;;;;;;57.30;28.65;;;3.40;98.30;;;;;;5126208;23;20203;-85
2021/01/01 10:22:14;;;;;;;51.30;29.05;;;3.50;98.30;;;;;;5117062;23;20532;-85
2021/01/01 10:24:17;;;;;;;70.85;32.20;;;3.50;98.30;;;;;;5125240;23;20281;-85
2021/01/01 10:26:19;;;;;;;52.20;28.85;;;3.50;98.30;;;;;;5125659;23;20206;-86
2021/01/01 10:28:21;;;;;;;54.35;31.45;;;3.50;98.30;;;;;;5127934;23;20202;-84
2021/01/01 10:30:23;;;;;;;55.65;30.90;;;3.50;98.30;;;;;;5102930;23;20207;-84
2021/01/01 10:32:26;;;;;;;59.70;31.33;;;3.60;98.30;;;;;;5099892;23;20202;-83
2021/01/01 10:34:29;;;;;;;54.03;31.70;;;3.60;98.30;;;;;;5100148;23;20204;-84
2021/01/01 10:36:31;;;;;;;53.03;30.80;;;3.60;98.30;;;;;;5100208;23;20571;-83
2021/01/01 10:38:34;;;;;;;48.83;27.98;;;3.60;98.30;;;;;;5100236;23;20234;-85